Time;durP1;ratioP1;P1;durP2;ratioP2;P2;SDS_P1;SDS_P2;PMS_P1;PMS_P2;Temp;Humidity;BMP_temperature;BMP_pressure;BME280_temperature;BME280_humidity;BME280_pressure;Samples;Min_cycle;Max_cycle;Signal;HPM_P1;HPM_P2
2023/11/20 00:02:16;;;;;;;;;;;;;;;5.21;63.81;99265.47;4981453;28;20313;-72
2023/11/20 00:04:41;;;;;;;;;;;;;;;5.45;63.29;99281.13;4993615;28;19918;-72
2023/11/20 00:07:07;;;;;;;;;;;;;;;5.52;62.89;99269.63;4974989;28;19922;-72
2023/11/20 00:09:32;;;;;;;;;;;;;;;5.58;62.82;99266.44;4975081;28;20148;-72
2023/11/20 00:11:58;;;;;;;;;;;;;;;5.60;63.04;99268.94;4975001;28;19914;-71
2023/11/20 00:14:23;;;;;;;;;;;;;;;5.51;62.87;99266.03;4992811;28;19918;-72
2023/11/20 00:16:48;;;;;;;;;;;;;;;5.54;62.48;99276.53;4991056;28;20005;-72
2023/11/20 00:19:14;;;;;;;;;;;;;;;5.53;62.45;99279.59;4973626;28;20308;-72
2023/11/20 00:21:40;;;;;;;;;;;;;;;5.53;62.54;99285.97;4974772;28;19918;-72
2023/11/20 00:24:06;;;;;;;;;;;;;;;5.51;62.73;99298.50;4974848;28;19914;-71
2023/11/20 00:26:32;;;;;;;;;;;;;;;5.49;64.50;99304.38;4973457;28;19969;-72
2023/11/20 00:28:58;;;;;;;;;;;;;;;5.31;64.06;99294.97;4990636;28;19918;-72
2023/11/20 00:31:24;;;;;;;;;;;;;;;5.48;63.85;99294.38;4993096;28;19917;-72
2023/11/20 00:33:49;;;;;;;;;;;;;;;5.38;63.96;99298.16;4994028;28;19914;-72
2023/11/20 00:36:14;;;;;;;;;;;;;;;5.43;64.15;99298.09;4992919;28;19961;-72
2023/11/20 00:38:40;;;;;;;;;;;;;;;5.45;64.71;99301.38;4993861;28;20395;-71
2023/11/20 00:41:05;;;;;;;;;;;;;;;5.55;64.47;99303.13;4993607;28;19917;-72
2023/11/20 00:43:31;;;;;;;;;;;;;;;5.57;64.43;99302.84;4993628;28;20304;-71
2023/11/20 00:45:57;;;;;;;;;;;;;;;5.52;65.15;99323.19;4992649;28;20004;-72
2023/11/20 00:48:22;;;;;;;;;;;;;;;5.57;65.27;99308.41;4992753;28;20023;-72
2023/11/20 00:50:47;;;;;;;;;;;;;;;5.62;64.88;99317.44;4990728;28;20076;-72
2023/11/20 00:53:13;;;;;;;;;;;;;;;5.58;65.86;99301.72;4992174;28;19921;-72
2023/11/20 00:55:38;;;;;;;;;;;;;;;5.52;66.10;99300.97;4993650;28;19924;-72
2023/11/20 00:58:03;;;;;;;;;;;;;;;5.47;65.99;99293.56;4993529;28;19921;-71
2023/11/20 01:00:29;;;;;;;;;;;;;;;5.46;66.52;99296.63;4993368;28;19925;-72
2023/11/20 01:02:54;;;;;;;;;;;;;;;5.36;67.05;99297.66;4992191;28;19918;-71
2023/11/20 01:05:21;;;;;;;;;;;;;;;5.52;66.47;99302.91;4991149;28;19924;-72
2023/11/20 01:07:47;;;;;;;;;;;;;;;5.42;67.43;99301.16;4974012;28;19946;-72
2023/11/20 01:10:12;;;;;;;;;;;;;;;5.47;67.26;99301.91;4981231;28;19922;-72
2023/11/20 01:12:38;;;;;;;;;;;;;;;5.29;67.71;99303.59;4992383;28;19914;-71
2023/11/20 01:15:04;;;;;;;;;;;;;;;5.37;66.80;99296.53;4991702;28;20444;-71
2023/11/20 01:17:29;;;;;;;;;;;;;;;5.20;67.34;99303.47;4991774;28;19925;-72
2023/11/20 01:19:54;;;;;;;;;;;;;;;5.29;66.88;99281.41;4991022;28;19918;-71
2023/11/20 01:22:19;;;;;;;;;;;;;;;5.00;67.34;99301.03;4991847;28;20400;-72
2023/11/20 01:24:45;;;;;;;;;;;;;;;5.21;67.29;99293.19;4989866;28;20273;-72
2023/11/20 01:27:10;;;;;;;;;;;;;;;5.20;67.77;99288.78;4991958;28;20385;-72
2023/11/20 01:29:35;;;;;;;;;;;;;;;5.33;67.52;99293.53;4991555;28;20412;-72
2023/11/20 01:32:01;;;;;;;;;;;;;;;5.39;67.17;99283.16;4992993;28;19913;-72
2023/11/20 01:34:26;;;;;;;;;;;;;;;5.31;67.38;99283.88;4992007;28;20368;-72
2023/11/20 01:36:51;;;;;;;;;;;;;;;4.59;69.80;99295.00;4990624;28;20016;-71
2023/11/20 01:39:17;;;;;;;;;;;;;;;4.75;69.19;99289.22;4991641;28;19921;-71
2023/11/20 01:41:42;;;;;;;;;;;;;;;5.07;69.08;99282.06;4987726;28;19914;-71
2023/11/20 01:44:07;;;;;;;;;;;;;;;4.87;67.99;99295.13;4981924;28;19924;-71
2023/11/20 01:46:34;;;;;;;;;;;;;;;4.80;69.65;99289.13;4992881;28;20008;-71
2023/11/20 01:49:01;;;;;;;;;;;;;;;5.14;70.16;99296.34;4992592;28;19980;-71
2023/11/20 01:51:27;;;;;;;;;;;;;;;4.74;69.42;99296.69;4992353;28;19952;-71
2023/11/20 01:53:53;;;;;;;;;;;;;;;5.08;69.18;99297.56;4990834;28;20404;-71
2023/11/20 01:56:19;;;;;;;;;;;;;;;4.86;69.51;99290.72;4991434;28;20371;-71
2023/11/20 01:58:44;;;;;;;;;;;;;;;4.90;69.77;99283.44;4973684;28;20005;-71
2023/11/20 02:01:10;;;;;;;;;;;;;;;4.96;69.33;99280.59;4989296;28;19917;-71
2023/11/20 02:03:35;;;;;;;;;;;;;;;4.91;69.34;99281.50;4992266;28;19969;-71
2023/11/20 02:06:00;;;;;;;;;;;;;;;4.86;68.95;99279.63;4986598;28;19925;-71
2023/11/20 02:08:26;;;;;;;;;;;;;;;4.93;67.57;99279.25;4973019;28;20020;-71
2023/11/20 02:10:52;;;;;;;;;;;;;;;4.99;67.67;99261.38;4972987;28;19925;-71
2023/11/20 02:13:18;;;;;;;;;;;;;;;5.03;67.96;99262.44;4982871;28;20336;-71
2023/11/20 02:15:43;;;;;;;;;;;;;;;5.20;66.85;99275.75;4992235;28;19957;-71
2023/11/20 02:18:29;;;;;;;;;;;;;;;5.31;66.65;99276.38;4992220;28;19969;-71
2023/11/20 02:20:54;;;;;;;;;;;;;;;5.16;67.16;99274.69;4992331;28;20408;-71
2023/11/20 02:23:19;;;;;;;;;;;;;;;5.41;66.32;99267.03;4992257;28;19925;-71
2023/11/20 02:25:45;;;;;;;;;;;;;;;5.46;66.19;99258.63;4991028;28;20000;-71
2023/11/20 02:28:21;;;;;;;;;;;;;;;5.40;66.32;99253.50;4991147;28;19960;-71
2023/11/20 02:30:46;;;;;;;;;;;;;;;5.30;66.71;99241.44;4987058;28;19934;-71
2023/11/20 02:33:12;;;;;;;;;;;;;;;5.37;66.22;99243.81;4972493;28;20305;-71
2023/11/20 02:35:37;;;;;;;;;;;;;;;5.39;66.23;99238.78;4987652;28;20403;-71
2023/11/20 02:38:02;;;;;;;;;;;;;;;5.38;65.52;99233.56;4972762;28;20397;-71
2023/11/20 02:40:28;;;;;;;;;;;;;;;5.53;66.32;99244.38;4986037;28;20385;-71
2023/11/20 02:42:53;;;;;;;;;;;;;;;5.66;65.73;99244.69;4991096;28;19918;-71
2023/11/20 02:45:19;;;;;;;;;;;;;;;5.38;67.39;99256.56;4989163;28;19926;-71
2023/11/20 02:47:44;;;;;;;;;;;;;;;5.37;67.54;99249.38;4972651;28;19918;-71
2023/11/20 02:50:10;;;;;;;;;;;;;;;5.20;68.86;99250.78;4971180;28;19925;-71
2023/11/20 02:52:35;;;;;;;;;;;;;;;5.41;68.48;99252.38;4992183;28;19922;-71
2023/11/20 02:55:00;;;;;;;;;;;;;;;5.33;69.02;99245.56;4991935;28;19992;-71
2023/11/20 02:57:26;;;;;;;;;;;;;;;5.12;69.22;99232.06;4990640;28;20355;-71
2023/11/20 02:59:51;;;;;;;;;;;;;;;5.02;69.95;99232.25;4990554;28;19925;-71
2023/11/20 03:02:17;;;;;;;;;;;;;;;5.28;69.41;99229.84;4990935;28;19914;-71
2023/11/20 03:04:43;;;;;;;;;;;;;;;5.28;70.08;99218.75;4975350;28;20316;-71
2023/11/20 03:07:09;;;;;;;;;;;;;;;4.93;70.63;99223.81;4981299;28;20403;-71
2023/11/20 03:09:34;;;;;;;;;;;;;;;5.21;70.34;99218.31;4990834;28;19918;-71
2023/11/20 03:11:59;;;;;;;;;;;;;;;5.24;70.89;99220.47;4991790;28;20008;-71
2023/11/20 03:14:24;;;;;;;;;;;;;;;5.20;70.78;99223.06;4988087;28;20306;-71
2023/11/20 03:16:50;;;;;;;;;;;;;;;5.22;70.48;99231.06;4987703;28;19976;-71
2023/11/20 03:19:16;;;;;;;;;;;;;;;5.13;70.75;99232.88;4992946;28;20381;-71
2023/11/20 03:21:41;;;;;;;;;;;;;;;4.81;72.90;99232.56;4995468;28;19928;-71
2023/11/20 03:24:07;;;;;;;;;;;;;;;4.82;72.80;99237.00;4995067;28;19964;-71
2023/11/20 03:26:32;;;;;;;;;;;;;;;4.86;73.02;99226.97;4993933;28;19972;-72
2023/11/20 03:28:57;;;;;;;;;;;;;;;4.59;72.88;99231.28;4994026;28;20360;-71
2023/11/20 03:31:22;;;;;;;;;;;;;;;4.55;74.00;99235.75;4993904;28;19941;-71
2023/11/20 03:33:48;;;;;;;;;;;;;;;4.45;73.91;99230.38;4975374;28;19925;-71
2023/11/20 03:36:14;;;;;;;;;;;;;;;4.54;73.39;99234.09;4993428;28;20381;-71
2023/11/20 03:38:39;;;;;;;;;;;;;;;4.71;73.03;99225.25;4995133;28;19924;-71
2023/11/20 03:41:05;;;;;;;;;;;;;;;4.91;72.96;99226.06;4995049;28;19914;-71
2023/11/20 03:43:30;;;;;;;;;;;;;;;4.91;72.95;99229.63;4993521;28;19914;-71
2023/11/20 03:45:56;;;;;;;;;;;;;;;4.89;72.48;99236.63;4994844;28;19928;-71
2023/11/20 03:48:21;;;;;;;;;;;;;;;4.57;73.48;99233.50;4994721;28;19918;-71
2023/11/20 03:50:46;;;;;;;;;;;;;;;4.69;74.24;99230.28;4981883;28;19961;-71
2023/11/20 03:53:12;;;;;;;;;;;;;;;4.66;74.27;99235.59;4975465;28;19986;-71
2023/11/20 03:55:37;;;;;;;;;;;;;;;4.71;74.53;99221.69;4975254;28;19921;-71
2023/11/20 03:58:02;;;;;;;;;;;;;;;4.57;74.40;99227.16;4975284;28;19914;-71
2023/11/20 04:00:29;;;;;;;;;;;;;;;4.65;73.53;99232.03;4991111;28;19940;-71
2023/11/20 04:02:55;;;;;;;;;;;;;;;4.88;72.06;99234.97;4994661;28;19913;-71
2023/11/20 04:05:20;;;;;;;;;;;;;;;5.02;70.86;99229.47;4993604;28;19918;-71
2023/11/20 04:07:45;;;;;;;;;;;;;;;5.11;70.73;99219.34;4994117;28;19921;-71
2023/11/20 04:10:11;;;;;;;;;;;;;;;5.16;69.89;99224.78;4993001;28;20069;-71
2023/11/20 04:12:36;;;;;;;;;;;;;;;5.28;69.73;99229.84;4992996;28;20356;-72
2023/11/20 04:15:02;;;;;;;;;;;;;;;5.41;69.86;99224.63;4992898;28;19917;-72
2023/11/20 04:17:28;;;;;;;;;;;;;;;5.29;69.75;99225.09;4994687;28;19953;-72
2023/11/20 04:19:53;;;;;;;;;;;;;;;5.30;70.24;99227.59;4993511;28;19914;-72
2023/11/20 04:22:19;;;;;;;;;;;;;;;5.23;70.51;99243.78;4993194;28;19926;-72
2023/11/20 04:24:44;;;;;;;;;;;;;;;5.25;70.27;99246.25;4992371;28;19922;-72
2023/11/20 04:27:09;;;;;;;;;;;;;;;5.14;70.04;99240.91;4994178;28;20012;-71
2023/11/20 04:29:35;;;;;;;;;;;;;;;5.30;69.72;99248.94;4993629;28;20332;-72
2023/11/20 04:32:01;;;;;;;;;;;;;;;5.38;69.79;99248.25;4992757;28;20000;-72
2023/11/20 04:34:26;;;;;;;;;;;;;;;5.48;69.55;99238.88;4993191;28;19914;-72
2023/11/20 04:36:51;;;;;;;;;;;;;;;5.30;69.30;99237.84;4993779;28;19918;-73
2023/11/20 04:39:17;;;;;;;;;;;;;;;5.46;69.29;99241.16;4994051;28;19964;-72
2023/11/20 04:41:42;;;;;;;;;;;;;;;5.61;68.51;99240.03;4992623;28;19964;-72
2023/11/20 04:44:07;;;;;;;;;;;;;;;5.71;69.05;99231.53;4992408;28;19918;-72
2023/11/20 04:46:34;;;;;;;;;;;;;;;5.73;68.65;99228.41;4992591;28;19921;-71
2023/11/20 04:48:59;;;;;;;;;;;;;;;5.51;69.77;99231.91;4991516;28;19933;-72
2023/11/20 04:51:25;;;;;;;;;;;;;;;5.66;69.71;99214.16;4992332;28;20009;-72
2023/11/20 04:53:51;;;;;;;;;;;;;;;5.73;69.15;99218.16;4993671;28;20400;-72
2023/11/20 04:56:16;;;;;;;;;;;;;;;5.44;70.49;99215.69;4988833;28;19922;-72
2023/11/20 04:58:44;;;;;;;;;;;;;;;5.14;71.27;99215.13;4989154;28;19918;-71
2023/11/20 05:01:10;;;;;;;;;;;;;;;5.39;71.15;99211.03;4990521;28;19996;-71
2023/11/20 05:03:35;;;;;;;;;;;;;;;5.47;71.47;99209.50;4992651;28;19918;-72
2023/11/20 05:06:01;;;;;;;;;;;;;;;5.42;72.12;99204.88;4974156;28;19956;-71
2023/11/20 05:08:27;;;;;;;;;;;;;;;5.40;72.75;99193.28;4977333;28;20321;-72
2023/11/20 05:10:53;;;;;;;;;;;;;;;5.30;73.71;99199.00;4972476;28;19925;-72
2023/11/20 05:13:19;;;;;;;;;;;;;;;5.39;73.13;99197.19;4975805;28;19964;-72
2023/11/20 05:15:45;;;;;;;;;;;;;;;5.41;73.18;99205.19;4991894;28;19953;-72
2023/11/20 05:18:11;;;;;;;;;;;;;;;5.45;73.19;99195.97;4984130;28;19919;-72
2023/11/20 05:20:37;;;;;;;;;;;;;;;5.43;73.25;99202.94;4976633;28;19992;-72
2023/11/20 05:23:03;;;;;;;;;;;;;;;5.50;73.84;99197.81;4972333;28;19914;-71
2023/11/20 05:25:28;;;;;;;;;;;;;;;5.45;74.16;99195.13;4991544;28;19924;-72
2023/11/20 05:27:54;;;;;;;;;;;;;;;5.48;73.53;99198.13;4987491;28;19918;-71
2023/11/20 05:30:19;;;;;;;;;;;;;;;5.47;74.07;99193.69;4973219;28;19922;-72
2023/11/20 05:32:44;;;;;;;;;;;;;;;5.51;74.09;99209.72;4985994;28;19975;-72
2023/11/20 05:35:09;;;;;;;;;;;;;;;5.56;73.84;99204.91;4991582;28;19921;-71
2023/11/20 05:37:35;;;;;;;;;;;;;;;5.45;74.61;99198.75;4992554;28;19918;-71
2023/11/20 05:40:00;;;;;;;;;;;;;;;5.53;74.20;99190.81;4992046;28;19925;-71
2023/11/20 05:42:26;;;;;;;;;;;;;;;5.37;75.16;99210.53;4992632;28;19957;-71
2023/11/20 05:44:51;;;;;;;;;;;;;;;5.44;75.01;99210.13;4986863;28;19928;-72
2023/11/20 05:47:16;;;;;;;;;;;;;;;5.55;75.24;99199.63;4990096;28;20290;-73
2023/11/20 05:49:41;;;;;;;;;;;;;;;5.52;75.59;99206.66;4991302;28;20471;-72
2023/11/20 05:52:07;;;;;;;;;;;;;;;5.56;75.50;99216.00;4992648;28;19914;-71
2023/11/20 05:54:32;;;;;;;;;;;;;;;5.61;75.38;99220.63;4992643;28;19914;-73
2023/11/20 05:56:57;;;;;;;;;;;;;;;5.61;75.85;99234.50;4992358;28;19918;-72
2023/11/20 05:59:23;;;;;;;;;;;;;;;5.69;75.95;99228.25;4992694;28;20450;-72
2023/11/20 06:01:49;;;;;;;;;;;;;;;5.73;75.19;99226.47;4986477;28;19940;-73
2023/11/20 06:04:14;;;;;;;;;;;;;;;5.61;75.73;99220.63;4987273;28;19917;-73
2023/11/20 06:06:39;;;;;;;;;;;;;;;5.62;76.45;99222.25;4992353;28;19924;-73
2023/11/20 06:09:05;;;;;;;;;;;;;;;5.66;76.01;99220.50;4976363;28;20393;-72
2023/11/20 06:11:31;;;;;;;;;;;;;;;5.19;78.47;99228.91;4974143;28;19923;-73
2023/11/20 06:13:59;;;;;;;;;;;;;;;5.40;78.39;99243.19;4983321;28;19980;-72
2023/11/20 06:16:28;;;;;;;;;;;;;;;5.55;77.24;99238.47;4991661;28;20008;-72
2023/11/20 06:18:54;;;;;;;;;;;;;;;5.51;77.82;99243.00;4991761;28;19967;-71
2023/11/20 06:21:19;;;;;;;;;;;;;;;5.53;78.28;99252.69;4983642;28;20384;-74
2023/11/20 06:23:45;;;;;;;;;;;;;;;5.69;78.31;99255.16;4984911;28;20336;-73
2023/11/20 06:26:10;;;;;;;;;;;;;;;5.82;77.91;99248.78;4982071;28;19921;-73
2023/11/20 06:28:36;;;;;;;;;;;;;;;5.92;77.85;99249.72;4986806;28;19922;-72
2023/11/20 06:31:03;;;;;;;;;;;;;;;5.89;78.02;99248.38;4983023;28;19937;-73
2023/11/20 06:33:28;;;;;;;;;;;;;;;5.97;77.75;99250.44;4987816;28;19917;-73
2023/11/20 06:35:54;;;;;;;;;;;;;;;6.03;77.44;99251.19;4982947;28;19926;-75
2023/11/20 06:38:20;;;;;;;;;;;;;;;6.04;77.01;99261.97;4980743;28;19922;-76
2023/11/20 06:40:45;;;;;;;;;;;;;;;6.04;78.19;99252.81;4977270;28;19968;-72
2023/11/20 06:43:11;;;;;;;;;;;;;;;6.18;78.30;99252.81;4982643;28;20353;-74
2023/11/20 06:45:36;;;;;;;;;;;;;;;6.39;77.87;99255.94;4987437;28;20388;-75
2023/11/20 06:48:01;;;;;;;;;;;;;;;6.51;77.23;99252.63;4989097;28;20343;-72
2023/11/20 06:50:27;;;;;;;;;;;;;;;6.75;76.95;99251.50;4988403;28;19953;-74
2023/11/20 06:52:53;;;;;;;;;;;;;;;6.92;76.74;99252.78;4990903;28;19922;-72
2023/11/20 06:55:18;;;;;;;;;;;;;;;7.12;76.24;99257.03;4992983;28;19913;-74
2023/11/20 06:57:44;;;;;;;;;;;;;;;7.26;75.56;99257.75;4990967;28;20478;-75
2023/11/20 07:00:11;;;;;;;;;;;;;;;7.51;75.25;99254.63;4991645;28;19932;-72
2023/11/20 07:02:37;;;;;;;;;;;;;;;7.70;74.24;99255.19;4993339;28;20005;-74
2023/11/20 07:05:03;;;;;;;;;;;;;;;7.72;73.18;99257.66;4991618;28;20028;-78
2023/11/20 07:07:28;;;;;;;;;;;;;;;7.95;73.49;99252.03;4990517;28;19917;-74
2023/11/20 07:09:55;;;;;;;;;;;;;;;8.13;73.29;99253.69;4987842;28;19925;-76
2023/11/20 07:12:20;;;;;;;;;;;;;;;8.32;71.43;99247.03;4984338;28;19921;-73
2023/11/20 07:14:45;;;;;;;;;;;;;;;8.46;71.70;99243.28;4993003;28;20403;-73
2023/11/20 07:17:10;;;;;;;;;;;;;;;8.73;70.79;99249.72;4989413;28;19952;-76
2023/11/20 07:19:36;;;;;;;;;;;;;;;8.89;70.64;99250.88;4991539;28;19918;-76
2023/11/20 07:22:01;;;;;;;;;;;;;;;9.08;69.31;99253.31;4991716;28;19968;-75
2023/11/20 07:24:27;;;;;;;;;;;;;;;9.30;68.24;99248.69;4991052;28;19968;-73
2023/11/20 07:26:53;;;;;;;;;;;;;;;9.52;67.28;99255.16;4991342;28;19917;-72
2023/11/20 07:29:18;;;;;;;;;;;;;;;9.64;66.98;99243.31;4989383;28;20404;-74
2023/11/20 07:31:43;;;;;;;;;;;;;;;9.82;66.76;99253.25;4975271;28;19918;-75
2023/11/20 07:34:09;;;;;;;;;;;;;;;10.07;65.66;99242.28;4985019;28;20376;-73
2023/11/20 07:36:34;;;;;;;;;;;;;;;10.33;64.82;99248.88;4989631;28;19925;-76
2023/11/20 07:38:59;;;;;;;;;;;;;;;10.57;63.59;99253.03;4989095;28;20335;-77
2023/11/20 07:41:25;;;;;;;;;;;;;;;10.73;63.48;99248.44;4989308;28;19987;-76
2023/11/20 07:43:50;;;;;;;;;;;;;;;10.90;62.63;99243.88;4986896;28;19921;-75
2023/11/20 07:46:15;;;;;;;;;;;;;;;11.13;61.72;99241.50;4989168;28;20335;-76
2023/11/20 07:48:41;;;;;;;;;;;;;;;11.31;62.66;99235.75;4988446;28;19917;-76
2023/11/20 07:51:06;;;;;;;;;;;;;;;11.49;63.61;99236.38;4990964;28;19933;-75
2023/11/20 07:53:31;;;;;;;;;;;;;;;11.66;62.12;99236.16;4993033;28;19957;-74
2023/11/20 07:55:58;;;;;;;;;;;;;;;11.70;61.81;99236.28;4987744;28;19922;-74
2023/11/20 07:58:26;;;;;;;;;;;;;;;11.86;61.83;99225.22;4990197;28;19918;-72
2023/11/20 08:00:51;;;;;;;;;;;;;;;12.10;60.18;99214.38;4991439;28;19918;-73
2023/11/20 08:03:17;;;;;;;;;;;;;;;12.23;58.06;99215.19;4990956;28;19928;-71
2023/11/20 08:05:45;;;;;;;;;;;;;;;12.32;57.32;99213.06;4988514;28;20311;-73
2023/11/20 08:08:11;;;;;;;;;;;;;;;12.36;56.02;99222.41;4989591;28;19921;-73
2023/11/20 08:10:37;;;;;;;;;;;;;;;12.44;55.57;99217.81;4989158;28;19922;-73
2023/11/20 08:13:02;;;;;;;;;;;;;;;12.57;54.90;99221.44;4989702;28;20300;-72
2023/11/20 08:15:28;;;;;;;;;;;;;;;12.65;54.78;99217.66;4991613;28;19922;-72
2023/11/20 08:17:53;;;;;;;;;;;;;;;12.73;55.07;99205.47;4992540;28;20436;-71
2023/11/20 08:20:19;;;;;;;;;;;;;;;12.90;54.53;99200.72;4991272;28;19913;-73
2023/11/20 08:22:44;;;;;;;;;;;;;;;13.11;54.04;99188.47;4987573;28;19918;-72
2023/11/20 08:25:10;;;;;;;;;;;;;;;13.26;54.07;99187.66;4992329;28;19921;-72
2023/11/20 08:27:37;;;;;;;;;;;;;;;13.29;53.00;99186.13;4989550;28;19929;-71
2023/11/20 08:30:03;;;;;;;;;;;;;;;13.44;52.29;99178.94;4988595;28;19940;-72
2023/11/20 08:32:28;;;;;;;;;;;;;;;13.52;51.71;99182.75;4986887;28;19926;-72
2023/11/20 08:34:54;;;;;;;;;;;;;;;13.51;51.97;99189.56;4992227;28;20321;-73
2023/11/20 08:37:22;;;;;;;;;;;;;;;13.62;51.72;99191.44;4989778;28;20283;-73
2023/11/20 08:39:47;;;;;;;;;;;;;;;13.86;51.67;99178.38;4989917;28;20294;-74
2023/11/20 08:42:13;;;;;;;;;;;;;;;13.82;50.99;99173.88;4991353;28;19921;-74
2023/11/20 08:44:38;;;;;;;;;;;;;;;13.95;52.39;99171.75;4991030;28;19917;-74
2023/11/20 08:47:05;;;;;;;;;;;;;;;14.06;51.40;99163.56;4989953;28;19956;-76
2023/11/20 08:49:30;;;;;;;;;;;;;;;14.17;51.48;99154.19;4990958;28;20006;-76
2023/11/20 08:51:55;;;;;;;;;;;;;;;14.39;51.18;99143.44;4991132;28;19922;-76
2023/11/20 08:54:21;;;;;;;;;;;;;;;14.60;50.31;99142.25;5003016;28;19918;-77
2023/11/20 08:56:46;;;;;;;;;;;;;;;14.84;49.51;99134.69;4989647;28;19949;-76
2023/11/20 08:59:12;;;;;;;;;;;;;;;14.82;48.65;99135.06;4990548;28;19924;-73
2023/11/20 09:01:37;;;;;;;;;;;;;;;14.85;48.52;99133.53;4989518;28;19925;-72
2023/11/20 09:04:03;;;;;;;;;;;;;;;14.88;48.64;99124.31;4989915;28;19918;-73
2023/11/20 09:06:29;;;;;;;;;;;;;;;15.06;47.91;99118.19;4991447;28;20317;-73
2023/11/20 09:08:54;;;;;;;;;;;;;;;15.16;47.81;99115.59;4992350;28;20415;-73
2023/11/20 09:11:19;;;;;;;;;;;;;;;15.23;47.74;99098.00;4991713;28;19926;-73
2023/11/20 09:13:44;;;;;;;;;;;;;;;15.23;47.90;99098.00;4995306;28;20419;-72
2023/11/20 09:16:10;;;;;;;;;;;;;;;15.29;46.85;99096.50;4991546;28;19918;-75
2023/11/20 09:18:35;;;;;;;;;;;;;;;15.34;47.50;99094.56;4991788;28;19995;-72
2023/11/20 09:21:04;;;;;;;;;;;;;;;15.49;47.15;99099.25;4991698;28;19973;-73
2023/11/20 09:23:29;;;;;;;;;;;;;;;15.48;46.84;99097.63;4993182;28;19921;-73
2023/11/20 09:25:56;;;;;;;;;;;;;;;15.61;46.33;99103.03;4991913;28;20396;-73
2023/11/20 09:28:23;;;;;;;;;;;;;;;15.68;46.50;99106.78;4989361;28;19956;-73
2023/11/20 09:30:48;;;;;;;;;;;;;;;15.64;45.50;99108.75;4992734;28;19924;-72
2023/11/20 09:33:13;;;;;;;;;;;;;;;15.66;46.30;99108.34;4991658;28;20008;-73
2023/11/20 09:35:38;;;;;;;;;;;;;;;15.64;45.51;99116.38;4976786;28;19985;-72
2023/11/20 09:38:05;;;;;;;;;;;;;;;15.62;46.19;99107.50;4990728;28;19978;-72
2023/11/20 09:40:31;;;;;;;;;;;;;;;15.85;45.80;99113.91;4989135;28;19953;-73
2023/11/20 09:42:58;;;;;;;;;;;;;;;15.87;46.27;99119.16;4988723;28;19972;-73
2023/11/20 09:45:27;;;;;;;;;;;;;;;15.82;45.61;99111.84;5004258;28;19926;-72
2023/11/20 09:47:53;;;;;;;;;;;;;;;15.92;46.61;99101.13;4995071;28;19924;-71
2023/11/20 09:50:18;;;;;;;;;;;;;;;15.97;46.55;99100.81;4992740;28;20012;-74
2023/11/20 09:52:45;;;;;;;;;;;;;;;15.96;45.54;99099.97;4992645;28;19953;-74
2023/11/20 09:55:12;;;;;;;;;;;;;;;15.95;45.82;99100.38;4991112;28;20385;-75
2023/11/20 09:57:37;;;;;;;;;;;;;;;16.08;46.30;99082.03;4992528;28;20004;-75
2023/11/20 10:00:02;;;;;;;;;;;;;;;16.12;45.88;99087.72;4983161;28;20076;-75
2023/11/20 10:02:28;;;;;;;;;;;;;;;16.12;45.62;99071.59;4983297;28;19914;-76
2023/11/20 10:04:54;;;;;;;;;;;;;;;16.20;45.40;99082.97;4988687;28;19932;-76
2023/11/20 10:07:22;;;;;;;;;;;;;;;16.30;45.87;99081.47;4991739;28;19941;-75
2023/11/20 10:09:51;;;;;;;;;;;;;;;16.42;45.53;99084.88;4991651;28;19967;-75
2023/11/20 10:12:17;;;;;;;;;;;;;;;16.36;44.93;99085.59;4989595;28;20021;-75
2023/11/20 10:14:43;;;;;;;;;;;;;;;16.42;44.51;99084.06;4991127;28;20035;-75
2023/11/20 10:17:11;;;;;;;;;;;;;;;16.49;44.92;99074.88;4988113;28;19922;-74
2023/11/20 10:19:37;;;;;;;;;;;;;;;16.51;44.54;99072.47;4978270;28;20381;-75
2023/11/20 10:22:05;;;;;;;;;;;;;;;16.47;44.08;99080.09;4990760;28;19925;-75
2023/11/20 10:24:30;;;;;;;;;;;;;;;16.41;44.43;99066.31;4992124;28;19924;-74
2023/11/20 10:26:55;;;;;;;;;;;;;;;16.23;44.21;99070.91;4990960;28;20388;-74
2023/11/20 10:29:21;;;;;;;;;;;;;;;16.26;44.13;99070.97;4998066;28;19922;-73
2023/11/20 10:31:47;;;;;;;;;;;;;;;16.43;44.10;99065.91;4996713;28;19928;-75
2023/11/20 10:34:12;;;;;;;;;;;;;;;16.52;43.82;99062.78;4998069;28;19940;-73
2023/11/20 10:36:38;;;;;;;;;;;;;;;16.62;43.35;99055.66;4998177;28;19976;-73
2023/11/20 10:39:04;;;;;;;;;;;;;;;16.62;43.14;99059.28;4990799;28;19971;-73
2023/11/20 10:41:30;;;;;;;;;;;;;;;16.46;42.62;99055.88;4996032;28;19965;-75
2023/11/20 10:43:55;;;;;;;;;;;;;;;16.38;42.69;99058.59;4996766;28;20024;-75
2023/11/20 10:46:21;;;;;;;;;;;;;;;16.36;42.53;99054.56;4996539;28;19929;-79
2023/11/20 10:48:47;;;;;;;;;;;;;;;16.42;42.70;99051.00;4991772;28;19987;-76
2023/11/20 10:51:15;;;;;;;;;;;;;;;16.53;41.97;99056.78;4990671;28;19930;-75
2023/11/20 10:53:42;;;;;;;;;;;;;;;16.55;42.27;99047.94;4997109;28;19962;-73
2023/11/20 10:56:08;;;;;;;;;;;;;;;16.72;42.00;99043.69;4993854;28;19968;-73
2023/11/20 10:58:34;;;;;;;;;;;;;;;16.84;41.54;99037.75;4996603;28;19917;-72
2023/11/20 11:00:59;;;;;;;;;;;;;;;16.91;41.20;99034.19;4995174;28;20455;-75
2023/11/20 11:03:30;;;;;;;;;;;;;;;16.97;41.46;99029.00;4996626;28;19918;-73
2023/11/20 11:05:58;;;;;;;;;;;;;;;16.95;41.36;99020.06;4996583;28;19918;-74
2023/11/20 11:08:23;;;;;;;;;;;;;;;17.17;41.25;99015.47;4991163;28;19918;-73
2023/11/20 11:10:50;;;;;;;;;;;;;;;17.12;40.49;99022.28;4998045;28;19929;-76
2023/11/20 11:13:20;;;;;;;;;;;;;;;17.10;40.91;99023.88;4997213;28;20348;-73
2023/11/20 11:15:52;;;;;;;;;;;;;;;17.13;39.80;99025.91;4997125;28;19921;-73
2023/11/20 11:18:23;;;;;;;;;;;;;;;17.35;40.61;99028.91;4995953;28;20012;-73
2023/11/20 11:20:56;;;;;;;;;;;;;;;17.59;40.17;99023.84;4998374;28;20317;-74
2023/11/20 11:23:29;;;;;;;;;;;;;;;17.64;39.58;99027.09;4995292;28;20434;-73
2023/11/20 11:26:12;;;;;;;;;;;;;;;17.64;39.52;99031.97;4995889;28;20453;-75
2023/11/20 11:28:39;;;;;;;;;;;;;;;17.33;39.17;99020.03;4996976;28;19918;-73
2023/11/20 11:31:08;;;;;;;;;;;;;;;17.12;39.95;99015.81;4995841;28;19926;-73
2023/11/20 11:33:51;;;;;;;;;;;;;;;17.00;40.12;99025.41;4984679;28;19918;-71
2023/11/20 11:36:22;;;;;;;;;;;;;;;16.88;40.61;99029.28;4996435;28;20415;-72
2023/11/20 11:39:09;;;;;;;;;;;;;;;16.98;40.89;99031.41;4990493;28;20320;-70
2023/11/20 11:41:34;;;;;;;;;;;;;;;16.84;41.95;99031.28;4994276;28;19917;-70
2023/11/20 11:44:05;;;;;;;;;;;;;;;16.77;41.22;99034.00;4994948;28;19975;-74
2023/11/20 11:46:35;;;;;;;;;;;;;;;16.70;41.52;99032.75;4989360;28;20009;-75
2023/11/20 11:49:19;;;;;;;;;;;;;;;16.55;41.36;99031.00;4993643;28;20019;-73
2023/11/20 11:51:48;;;;;;;;;;;;;;;16.38;40.72;99033.22;4989896;28;19922;-74
2023/11/20 11:54:16;;;;;;;;;;;;;;;16.35;41.22;99033.16;4990215;28;19922;-73
2023/11/20 11:56:47;;;;;;;;;;;;;;;16.45;41.61;99040.16;4994523;28;19925;-74
2023/11/20 11:59:14;;;;;;;;;;;;;;;16.30;42.01;99042.81;4994430;28;19941;-73
2023/11/20 12:01:47;;;;;;;;;;;;;;;16.30;41.45;99039.16;4992825;28;19918;-73
2023/11/20 12:04:33;;;;;;;;;;;;;;;16.32;41.92;99031.13;4977538;28;19918;-73
2023/11/20 12:07:02;;;;;;;;;;;;;;;16.27;42.22;99035.91;4988035;28;20044;-73
2023/11/20 12:09:48;;;;;;;;;;;;;;;16.25;42.03;99037.50;4992224;28;20308;-73
2023/11/20 12:12:13;;;;;;;;;;;;;;;16.08;42.42;99036.88;4992897;28;19917;-73
2023/11/20 12:14:38;;;;;;;;;;;;;;;16.24;42.55;99035.88;4990710;28;20304;-73
2023/11/20 12:17:05;;;;;;;;;;;;;;;16.11;42.77;99043.78;4991248;28;19918;-73
2023/11/20 12:19:32;;;;;;;;;;;;;;;16.03;43.06;99042.84;4990427;28;19945;-73
2023/11/20 12:21:58;;;;;;;;;;;;;;;15.80;43.35;99037.28;4993740;28;20012;-73
2023/11/20 12:24:25;;;;;;;;;;;;;;;15.67;43.84;99034.69;4993063;28;20012;-73
2023/11/20 12:26:54;;;;;;;;;;;;;;;15.73;43.60;99033.16;4993392;28;19917;-73
2023/11/20 12:29:20;;;;;;;;;;;;;;;15.80;43.78;99037.28;4983749;28;20389;-73
2023/11/20 12:31:46;;;;;;;;;;;;;;;15.81;43.88;99038.91;4992619;28;19929;-73
2023/11/20 12:34:11;;;;;;;;;;;;;;;15.84;43.88;99041.78;4991483;28;19918;-73
2023/11/20 12:36:37;;;;;;;;;;;;;;;15.89;44.28;99042.63;4982797;28;19926;-73
2023/11/20 12:39:03;;;;;;;;;;;;;;;15.86;44.28;99047.00;4987314;28;20009;-73
2023/11/20 12:41:29;;;;;;;;;;;;;;;15.86;44.18;99053.47;4987444;28;19925;-73
2023/11/20 12:43:54;;;;;;;;;;;;;;;15.84;43.78;99049.41;4988239;28;20001;-73
2023/11/20 12:46:20;;;;;;;;;;;;;;;15.82;43.98;99063.91;4983742;28;20376;-73
2023/11/20 12:48:45;;;;;;;;;;;;;;;15.77;43.42;99054.97;4989336;28;20377;-73